Flight Track Log - Related Links

Times and Time Zones

All times are in EDT time to prevent confusion due to time zone crossing. See the SKW2630 flight status page for this flight to view local times or setup timezone preferences in your user account.

Time Position Orientation Groundspeed Altitude Reporting Facility
EDT Latitude Longitude Course Direction KTS MPH feet Rate Location/Type
Mon 11:47:06 AM 33.9325 -118.4531 264° West 182 209 1,800  Level Los Angeles Center
Mon 11:48:08 AM 33.9250 -118.5400 264° West 259 298 4,300 2,661 Climbing Los Angeles Center
Mon 11:49:10 AM 33.9267 -118.6281 271° West 268 308 7,300 2,274 Climbing Los Angeles Center
Mon 11:50:12 AM 33.9931 -118.6914 322° Northwest 283 326 9,000 1,355 Climbing Los Angeles Center
Mon 11:51:14 AM 34.0706 -118.6867 North 308 354 10,100 1,694 Climbing Los Angeles Center
Mon 11:52:16 AM 34.1481 -118.6381 27° Northeast 307 353 12,500 2,177 Climbing Los Angeles Center
Mon 11:53:18 AM 34.2325 -118.6150 13° North 318 366 14,600 1,935 Climbing Los Angeles Center
Mon 11:54:20 AM 34.3183 -118.6231 356° North 313 360 16,500 1,548 Climbing Los Angeles Center
Mon 11:55:22 AM 34.4083 -118.6456 348° North 331 381 17,800 1,113 Climbing Los Angeles Center
Mon 11:56:24 AM 34.5044 -118.6692 349° North 352 405 18,800 1,065 Climbing Los Angeles Center
Mon 11:57:26 AM 34.6247 -118.6983 349° North 368 423 20,000 1,065 Climbing Los Angeles Center
Mon 11:58:28 AM 34.7258 -118.7258 347° North 374 430 21,000 968 Climbing Los Angeles Center
Mon 11:59:30 AM 34.8308 -118.7500 349° North 382 440 22,000 1,016 Climbing Los Angeles Center
Mon 12:00:32 PM 34.9431 -118.7767 349° North 391 450 23,100 968 Climbing Los Angeles Center
Mon 12:01:34 PM 35.0506 -118.8042 348° North 396 456 24,000 435 Climbing Los Angeles Center
Mon 12:02:36 PM 35.1631 -118.8319 349° North 411 473 24,000  Level Los Angeles Center
Mon 12:03:38 PM 35.2811 -118.8603 349° North 428 493 24,000  Level Los Angeles Center
Mon 12:04:40 PM 35.4192 -118.8953 348° North 424 488 24,000 -435 Level Los Angeles Center
Mon 12:05:42 PM 35.5339 -118.9242 348° North 423 487 23,100 -1,403 Descending Los Angeles Center
Mon 12:06:44 PM 35.6483 -118.9547 348° North 423 487 21,100 -2,081 Descending Los Angeles Center
Mon 12:07:46 PM 35.7647 -118.9836 349° North 426 490 18,800 -2,293 Descending Los Angeles Center
Mon 12:08:47 PM 35.8747 -119.0114 348° North 411 473 16,400 -2,341 Descending Los Angeles Center
Mon 12:09:49 PM 35.9978 -119.0617 342° North 389 448 14,000 -1,161 Descending Los Angeles Center
Mon 12:10:51 PM 36.0956 -119.1081 339° North 379 436 14,000  Level Los Angeles Center
Mon 12:11:53 PM 36.1889 -119.1517 339° North 364 419 14,000 -726 Level Los Angeles Center
Mon 12:12:55 PM 36.2833 -119.1983 338° Northwest 366 421 12,500 -1,452 Descending Los Angeles Center
Mon 12:13:57 PM 36.3753 -119.2414 339° North 362 417 11,000 -1,355 Descending Los Angeles Center
Mon 12:14:59 PM 36.4589 -119.2831 338° Northwest 348 400 9,700 -2,177 Descending Los Angeles Center
Mon 12:16:01 PM 36.5442 -119.3258 338° Northwest 312 359 6,500 -2,806 Descending Los Angeles Center
Mon 12:17:03 PM 36.5906 -119.3931 311° West 281 323 3,900 -1,759 Descending Los Angeles Center
Mon 12:18:14 PM 36.6431 -119.4803 307° West 254 292 2,600 -1,099 Descending Oakland Center

Login

Don't have an account? Register now (free) for customized features, flight alerts, and more!